sensor_id;sensor_type;location;lat;lon;timestamp;P1;durP1;ratioP1;P2;durP2;ratioP2
38693;SDS011;24447;43.460;25.744;2023-02-04T00:01:05;26.80;;;10.70;;
38693;SDS011;24447;43.460;25.744;2023-02-04T00:03:31;23.42;;;10.77;;
38693;SDS011;24447;43.460;25.744;2023-02-04T00:05:57;32.97;;;13.57;;
38693;SDS011;24447;43.460;25.744;2023-02-04T00:08:23;36.75;;;15.93;;
38693;SDS011;24447;43.460;25.744;2023-02-04T00:10:49;32.08;;;15.73;;
38693;SDS011;24447;43.460;25.744;2023-02-04T00:13:15;28.48;;;12.27;;
38693;SDS011;24447;43.460;25.744;2023-02-04T00:15:40;24.48;;;11.20;;
38693;SDS011;24447;43.460;25.744;2023-02-04T00:18:06;25.58;;;10.65;;
38693;SDS011;24447;43.460;25.744;2023-02-04T00:20:33;29.40;;;10.65;;
38693;SDS011;24447;43.460;25.744;2023-02-04T00:22:59;22.42;;;8.93;;
38693;SDS011;24447;43.460;25.744;2023-02-04T00:25:25;28.00;;;10.20;;
38693;SDS011;24447;43.460;25.744;2023-02-04T00:27:51;23.95;;;9.35;;
38693;SDS011;24447;43.460;25.744;2023-02-04T00:30:17;27.65;;;9.70;;
38693;SDS011;24447;43.460;25.744;2023-02-04T00:32:43;27.83;;;10.25;;
38693;SDS011;24447;43.460;25.744;2023-02-04T00:35:09;28.80;;;10.35;;
38693;SDS011;24447;43.460;25.744;2023-02-04T00:37:35;22.83;;;7.57;;
38693;SDS011;24447;43.460;25.744;2023-02-04T00:40:01;18.05;;;8.95;;
38693;SDS011;24447;43.460;25.744;2023-02-04T00:42:26;18.65;;;7.70;;
38693;SDS011;24447;43.460;25.744;2023-02-04T00:44:52;19.85;;;8.98;;
38693;SDS011;24447;43.460;25.744;2023-02-04T00:47:18;20.77;;;7.85;;
38693;SDS011;24447;43.460;25.744;2023-02-04T00:49:44;25.85;;;9.50;;
38693;SDS011;24447;43.460;25.744;2023-02-04T00:52:10;19.65;;;7.55;;
38693;SDS011;24447;43.460;25.744;2023-02-04T00:54:36;20.05;;;6.15;;
38693;SDS011;24447;43.460;25.744;2023-02-04T00:57:02;16.63;;;6.55;;
38693;SDS011;24447;43.460;25.744;2023-02-04T00:59:28;19.48;;;6.95;;
38693;SDS011;24447;43.460;25.744;2023-02-04T01:01:54;15.27;;;6.25;;
38693;SDS011;24447;43.460;25.744;2023-02-04T01:04:20;16.98;;;5.53;;
38693;SDS011;24447;43.460;25.744;2023-02-04T01:06:46;15.40;;;5.18;;
38693;SDS011;24447;43.460;25.744;2023-02-04T01:09:12;10.20;;;4.18;;
38693;SDS011;24447;43.460;25.744;2023-02-04T01:11:37;9.68;;;4.45;;
38693;SDS011;24447;43.460;25.744;2023-02-04T01:14:03;10.52;;;4.10;;
38693;SDS011;24447;43.460;25.744;2023-02-04T01:16:29;7.32;;;3.40;;
38693;SDS011;24447;43.460;25.744;2023-02-04T01:18:55;7.82;;;3.38;;
38693;SDS011;24447;43.460;25.744;2023-02-04T01:21:22;11.43;;;4.38;;
38693;SDS011;24447;43.460;25.744;2023-02-04T01:23:48;17.10;;;6.22;;
38693;SDS011;24447;43.460;25.744;2023-02-04T01:26:14;15.73;;;6.13;;
38693;SDS011;24447;43.460;25.744;2023-02-04T01:28:44;9.52;;;4.43;;
38693;SDS011;24447;43.460;25.744;2023-02-04T01:31:10;7.85;;;3.75;;
38693;SDS011;24447;43.460;25.744;2023-02-04T01:33:36;14.13;;;4.97;;
38693;SDS011;24447;43.460;25.744;2023-02-04T01:36:02;10.02;;;4.15;;
38693;SDS011;24447;43.460;25.744;2023-02-04T01:38:28;18.67;;;7.50;;
38693;SDS011;24447;43.460;25.744;2023-02-04T01:40:54;17.10;;;5.53;;
38693;SDS011;24447;43.460;25.744;2023-02-04T01:43:20;17.20;;;5.97;;
38693;SDS011;24447;43.460;25.744;2023-02-04T01:45:47;15.85;;;6.53;;
38693;SDS011;24447;43.460;25.744;2023-02-04T01:48:14;14.52;;;5.13;;
38693;SDS011;24447;43.460;25.744;2023-02-04T01:50:56;10.27;;;3.88;;
38693;SDS011;24447;43.460;25.744;2023-02-04T01:53:32;11.43;;;4.38;;
38693;SDS011;24447;43.460;25.744;2023-02-04T01:55:59;10.93;;;5.05;;
38693;SDS011;24447;43.460;25.744;2023-02-04T01:58:27;13.55;;;4.53;;
38693;SDS011;24447;43.460;25.744;2023-02-04T02:00:55;19.38;;;6.03;;
38693;SDS011;24447;43.460;25.744;2023-02-04T02:03:21;12.90;;;4.47;;
38693;SDS011;24447;43.460;25.744;2023-02-04T02:05:48;11.63;;;4.82;;
38693;SDS011;24447;43.460;25.744;2023-02-04T02:08:15;10.00;;;4.60;;
38693;SDS011;24447;43.460;25.744;2023-02-04T02:10:42;14.23;;;4.53;;
38693;SDS011;24447;43.460;25.744;2023-02-04T02:13:10;12.68;;;5.15;;
38693;SDS011;24447;43.460;25.744;2023-02-04T02:15:38;11.85;;;4.10;;
38693;SDS011;24447;43.460;25.744;2023-02-04T02:18:04;7.72;;;3.53;;
38693;SDS011;24447;43.460;25.744;2023-02-04T02:20:30;5.72;;;3.30;;
38693;SDS011;24447;43.460;25.744;2023-02-04T02:22:59;12.70;;;4.78;;
38693;SDS011;24447;43.460;25.744;2023-02-04T02:25:26;10.98;;;4.93;;
38693;SDS011;24447;43.460;25.744;2023-02-04T02:27:52;6.70;;;3.45;;
38693;SDS011;24447;43.460;25.744;2023-02-04T02:30:19;7.97;;;3.60;;
38693;SDS011;24447;43.460;25.744;2023-02-04T02:32:45;8.57;;;3.65;;
38693;SDS011;24447;43.460;25.744;2023-02-04T02:35:13;10.63;;;3.95;;
38693;SDS011;24447;43.460;25.744;2023-02-04T02:37:39;10.18;;;3.40;;
38693;SDS011;24447;43.460;25.744;2023-02-04T02:40:05;8.57;;;3.78;;
38693;SDS011;24447;43.460;25.744;2023-02-04T02:42:32;9.35;;;3.50;;
38693;SDS011;24447;43.460;25.744;2023-02-04T02:44:58;11.60;;;3.78;;
38693;SDS011;24447;43.460;25.744;2023-02-04T02:47:25;6.40;;;4.05;;
38693;SDS011;24447;43.460;25.744;2023-02-04T02:49:52;6.25;;;2.90;;
38693;SDS011;24447;43.460;25.744;2023-02-04T02:52:18;9.45;;;3.55;;
38693;SDS011;24447;43.460;25.744;2023-02-04T02:54:45;6.88;;;2.75;;
38693;SDS011;24447;43.460;25.744;2023-02-04T02:57:12;6.47;;;3.20;;
38693;SDS011;24447;43.460;25.744;2023-02-04T02:59:40;6.78;;;3.15;;
38693;SDS011;24447;43.460;25.744;2023-02-04T03:02:06;14.00;;;4.57;;
38693;SDS011;24447;43.460;25.744;2023-02-04T03:04:33;5.43;;;3.15;;
38693;SDS011;24447;43.460;25.744;2023-02-04T03:07:03;9.27;;;3.60;;
38693;SDS011;24447;43.460;25.744;2023-02-04T03:09:28;18.45;;;4.90;;
38693;SDS011;24447;43.460;25.744;2023-02-04T03:11:54;8.07;;;2.88;;
38693;SDS011;24447;43.460;25.744;2023-02-04T03:14:20;5.18;;;2.88;;
38693;SDS011;24447;43.460;25.744;2023-02-04T03:16:49;7.50;;;3.50;;
38693;SDS011;24447;43.460;25.744;2023-02-04T03:19:15;9.13;;;3.80;;
38693;SDS011;24447;43.460;25.744;2023-02-04T03:21:41;11.93;;;4.78;;
38693;SDS011;24447;43.460;25.744;2023-02-04T03:24:07;12.07;;;3.83;;
38693;SDS011;24447;43.460;25.744;2023-02-04T03:26:34;6.45;;;3.13;;
38693;SDS011;24447;43.460;25.744;2023-02-04T03:29:00;6.50;;;2.47;;
38693;SDS011;24447;43.460;25.744;2023-02-04T03:31:26;7.35;;;3.10;;
38693;SDS011;24447;43.460;25.744;2023-02-04T03:33:52;7.88;;;3.13;;
38693;SDS011;24447;43.460;25.744;2023-02-04T03:36:18;7.65;;;3.50;;
38693;SDS011;24447;43.460;25.744;2023-02-04T03:38:44;8.55;;;3.08;;
38693;SDS011;24447;43.460;25.744;2023-02-04T03:41:10;5.55;;;2.10;;
38693;SDS011;24447;43.460;25.744;2023-02-04T03:43:36;4.68;;;2.55;;
38693;SDS011;24447;43.460;25.744;2023-02-04T03:46:01;14.75;;;5.90;;
38693;SDS011;24447;43.460;25.744;2023-02-04T03:48:27;14.02;;;4.85;;
38693;SDS011;24447;43.460;25.744;2023-02-04T03:50:53;6.85;;;2.65;;
38693;SDS011;24447;43.460;25.744;2023-02-04T03:53:19;7.63;;;3.35;;
38693;SDS011;24447;43.460;25.744;2023-02-04T03:55:46;15.20;;;3.58;;
38693;SDS011;24447;43.460;25.744;2023-02-04T03:58:12;7.03;;;2.40;;
38693;SDS011;24447;43.460;25.744;2023-02-04T04:00:38;21.92;;;7.47;;
38693;SDS011;24447;43.460;25.744;2023-02-04T04:03:04;7.00;;;3.88;;
38693;SDS011;24447;43.460;25.744;2023-02-04T04:05:30;32.08;;;12.88;;
38693;SDS011;24447;43.460;25.744;2023-02-04T04:07:56;84.55;;;31.80;;
38693;SDS011;24447;43.460;25.744;2023-02-04T04:10:23;93.80;;;46.53;;
38693;SDS011;24447;43.460;25.744;2023-02-04T04:12:49;33.65;;;14.48;;
38693;SDS011;24447;43.460;25.744;2023-02-04T04:15:15;30.52;;;12.60;;
38693;SDS011;24447;43.460;25.744;2023-02-04T04:17:42;33.95;;;14.43;;
38693;SDS011;24447;43.460;25.744;2023-02-04T04:20:08;23.40;;;9.27;;
38693;SDS011;24447;43.460;25.744;2023-02-04T04:22:34;30.83;;;12.50;;
38693;SDS011;24447;43.460;25.744;2023-02-04T04:25:00;21.67;;;8.55;;
38693;SDS011;24447;43.460;25.744;2023-02-04T04:27:26;30.25;;;13.55;;
38693;SDS011;24447;43.460;25.744;2023-02-04T04:29:53;42.63;;;17.88;;
38693;SDS011;24447;43.460;25.744;2023-02-04T04:32:19;31.05;;;13.02;;
38693;SDS011;24447;43.460;25.744;2023-02-04T04:34:45;41.10;;;18.40;;
38693;SDS011;24447;43.460;25.744;2023-02-04T04:37:11;35.33;;;15.82;;
38693;SDS011;24447;43.460;25.744;2023-02-04T04:39:37;48.25;;;20.35;;
38693;SDS011;24447;43.460;25.744;2023-02-04T04:42:03;45.38;;;17.67;;
38693;SDS011;24447;43.460;25.744;2023-02-04T04:44:29;92.10;;;35.65;;
38693;SDS011;24447;43.460;25.744;2023-02-04T04:46:54;51.00;;;23.52;;
38693;SDS011;24447;43.460;25.744;2023-02-04T04:49:20;31.40;;;13.88;;
38693;SDS011;24447;43.460;25.744;2023-02-04T04:51:46;34.05;;;15.60;;
38693;SDS011;24447;43.460;25.744;2023-02-04T04:54:12;81.25;;;33.88;;
38693;SDS011;24447;43.460;25.744;2023-02-04T04:56:38;53.28;;;19.90;;
38693;SDS011;24447;43.460;25.744;2023-02-04T04:59:04;42.65;;;20.08;;
38693;SDS011;24447;43.460;25.744;2023-02-04T05:01:30;46.25;;;19.75;;
38693;SDS011;24447;43.460;25.744;2023-02-04T05:03:56;20.58;;;8.75;;
38693;SDS011;24447;43.460;25.744;2023-02-04T05:06:22;32.63;;;11.57;;
38693;SDS011;24447;43.460;25.744;2023-02-04T05:08:52;42.83;;;17.95;;
38693;SDS011;24447;43.460;25.744;2023-02-04T05:11:18;41.40;;;16.55;;
38693;SDS011;24447;43.460;25.744;2023-02-04T05:13:45;27.60;;;12.32;;
38693;SDS011;24447;43.460;25.744;2023-02-04T05:16:11;33.20;;;12.80;;
38693;SDS011;24447;43.460;25.744;2023-02-04T05:18:38;48.10;;;19.27;;
38693;SDS011;24447;43.460;25.744;2023-02-04T05:21:04;28.13;;;10.57;;
38693;SDS011;24447;43.460;25.744;2023-02-04T05:23:30;35.08;;;13.13;;
38693;SDS011;24447;43.460;25.744;2023-02-04T05:25:57;34.10;;;11.95;;
38693;SDS011;24447;43.460;25.744;2023-02-04T05:28:23;31.02;;;15.20;;
38693;SDS011;24447;43.460;25.744;2023-02-04T05:30:49;29.20;;;11.15;;
38693;SDS011;24447;43.460;25.744;2023-02-04T05:33:15;32.78;;;11.25;;
38693;SDS011;24447;43.460;25.744;2023-02-04T05:35:41;26.20;;;8.88;;
38693;SDS011;24447;43.460;25.744;2023-02-04T05:38:07;36.22;;;12.93;;
38693;SDS011;24447;43.460;25.744;2023-02-04T05:40:33;36.42;;;12.70;;
38693;SDS011;24447;43.460;25.744;2023-02-04T05:42:59;48.40;;;15.45;;
38693;SDS011;24447;43.460;25.744;2023-02-04T05:45:25;61.38;;;19.05;;
38693;SDS011;24447;43.460;25.744;2023-02-04T05:47:51;41.83;;;14.85;;
38693;SDS011;24447;43.460;25.744;2023-02-04T05:50:17;32.70;;;11.82;;
38693;SDS011;24447;43.460;25.744;2023-02-04T05:52:43;68.70;;;23.25;;
38693;SDS011;24447;43.460;25.744;2023-02-04T05:55:09;37.65;;;13.43;;
38693;SDS011;24447;43.460;25.744;2023-02-04T05:57:36;43.17;;;17.85;;
38693;SDS011;24447;43.460;25.744;2023-02-04T06:00:03;17.98;;;7.07;;
38693;SDS011;24447;43.460;25.744;2023-02-04T06:02:30;13.45;;;5.53;;
38693;SDS011;24447;43.460;25.744;2023-02-04T06:04:56;21.38;;;7.88;;
38693;SDS011;24447;43.460;25.744;2023-02-04T06:07:22;19.20;;;8.25;;
38693;SDS011;24447;43.460;25.744;2023-02-04T06:09:47;14.27;;;6.88;;
38693;SDS011;24447;43.460;25.744;2023-02-04T06:12:13;19.60;;;7.40;;
38693;SDS011;24447;43.460;25.744;2023-02-04T06:14:39;16.27;;;7.18;;
38693;SDS011;24447;43.460;25.744;2023-02-04T06:17:05;18.98;;;7.80;;
38693;SDS011;24447;43.460;25.744;2023-02-04T06:19:31;22.63;;;7.85;;
38693;SDS011;24447;43.460;25.744;2023-02-04T06:21:57;24.35;;;10.02;;
38693;SDS011;24447;43.460;25.744;2023-02-04T06:24:23;24.25;;;9.43;;
38693;SDS011;24447;43.460;25.744;2023-02-04T06:26:49;21.83;;;8.25;;
38693;SDS011;24447;43.460;25.744;2023-02-04T06:29:15;16.45;;;6.45;;
38693;SDS011;24447;43.460;25.744;2023-02-04T06:31:41;26.45;;;9.25;;
38693;SDS011;24447;43.460;25.744;2023-02-04T06:34:08;41.17;;;13.27;;
38693;SDS011;24447;43.460;25.744;2023-02-04T06:36:34;27.63;;;11.27;;
38693;SDS011;24447;43.460;25.744;2023-02-04T06:39:00;21.90;;;8.60;;
38693;SDS011;24447;43.460;25.744;2023-02-04T06:41:26;21.98;;;10.85;;
38693;SDS011;24447;43.460;25.744;2023-02-04T06:43:52;27.65;;;11.57;;
38693;SDS011;24447;43.460;25.744;2023-02-04T06:46:18;29.35;;;13.45;;
38693;SDS011;24447;43.460;25.744;2023-02-04T06:48:44;37.08;;;16.23;;
38693;SDS011;24447;43.460;25.744;2023-02-04T06:51:10;34.45;;;16.45;;
38693;SDS011;24447;43.460;25.744;2023-02-04T06:53:35;35.10;;;14.02;;
38693;SDS011;24447;43.460;25.744;2023-02-04T06:56:01;31.60;;;13.20;;
38693;SDS011;24447;43.460;25.744;2023-02-04T06:58:27;30.77;;;12.23;;
38693;SDS011;24447;43.460;25.744;2023-02-04T07:00:53;38.20;;;15.57;;
38693;SDS011;24447;43.460;25.744;2023-02-04T07:03:19;41.25;;;16.92;;
38693;SDS011;24447;43.460;25.744;2023-02-04T07:05:45;30.00;;;10.90;;
38693;SDS011;24447;43.460;25.744;2023-02-04T07:08:11;49.13;;;19.05;;
38693;SDS011;24447;43.460;25.744;2023-02-04T07:10:37;43.10;;;16.50;;
38693;SDS011;24447;43.460;25.744;2023-02-04T07:13:03;36.75;;;16.23;;
38693;SDS011;24447;43.460;25.744;2023-02-04T07:15:29;41.50;;;19.55;;
38693;SDS011;24447;43.460;25.744;2023-02-04T07:17:55;49.90;;;21.92;;
38693;SDS011;24447;43.460;25.744;2023-02-04T07:20:22;42.38;;;17.95;;
38693;SDS011;24447;43.460;25.744;2023-02-04T07:22:48;39.33;;;18.73;;
38693;SDS011;24447;43.460;25.744;2023-02-04T07:25:13;48.05;;;22.77;;
38693;SDS011;24447;43.460;25.744;2023-02-04T07:27:41;40.17;;;19.05;;
38693;SDS011;24447;43.460;25.744;2023-02-04T07:30:08;58.67;;;23.38;;
38693;SDS011;24447;43.460;25.744;2023-02-04T07:32:34;50.13;;;22.00;;
38693;SDS011;24447;43.460;25.744;2023-02-04T07:35:00;93.95;;;34.05;;
38693;SDS011;24447;43.460;25.744;2023-02-04T07:37:26;75.47;;;32.63;;
38693;SDS011;24447;43.460;25.744;2023-02-04T07:39:52;46.05;;;18.77;;
38693;SDS011;24447;43.460;25.744;2023-02-04T07:42:18;34.35;;;12.65;;
38693;SDS011;24447;43.460;25.744;2023-02-04T07:44:44;38.17;;;15.07;;
38693;SDS011;24447;43.460;25.744;2023-02-04T07:47:10;36.05;;;13.05;;
38693;SDS011;24447;43.460;25.744;2023-02-04T07:49:36;43.70;;;18.83;;
38693;SDS011;24447;43.460;25.744;2023-02-04T07:52:03;32.33;;;14.50;;
38693;SDS011;24447;43.460;25.744;2023-02-04T07:54:29;27.00;;;13.65;;
38693;SDS011;24447;43.460;25.744;2023-02-04T07:56:55;23.45;;;11.80;;
38693;SDS011;24447;43.460;25.744;2023-02-04T07:59:21;32.10;;;13.15;;
38693;SDS011;24447;43.460;25.744;2023-02-04T08:01:47;28.58;;;14.93;;
38693;SDS011;24447;43.460;25.744;2023-02-04T08:04:13;16.52;;;6.18;;
38693;SDS011;24447;43.460;25.744;2023-02-04T08:06:39;17.73;;;7.00;;
38693;SDS011;24447;43.460;25.744;2023-02-04T08:09:05;24.95;;;11.50;;
38693;SDS011;24447;43.460;25.744;2023-02-04T08:11:31;23.02;;;11.18;;
38693;SDS011;24447;43.460;25.744;2023-02-04T08:13:57;33.65;;;17.52;;
38693;SDS011;24447;43.460;25.744;2023-02-04T08:16:23;29.52;;;12.32;;
38693;SDS011;24447;43.460;25.744;2023-02-04T08:18:49;28.88;;;15.20;;
38693;SDS011;24447;43.460;25.744;2023-02-04T08:21:15;38.30;;;18.40;;
38693;SDS011;24447;43.460;25.744;2023-02-04T08:23:41;28.30;;;12.85;;
38693;SDS011;24447;43.460;25.744;2023-02-04T08:26:10;31.45;;;12.93;;
38693;SDS011;24447;43.460;25.744;2023-02-04T08:28:36;29.88;;;12.88;;
38693;SDS011;24447;43.460;25.744;2023-02-04T08:31:03;29.58;;;12.82;;
38693;SDS011;24447;43.460;25.744;2023-02-04T08:33:30;35.90;;;17.83;;
38693;SDS011;24447;43.460;25.744;2023-02-04T08:35:56;32.67;;;14.82;;
38693;SDS011;24447;43.460;25.744;2023-02-04T08:38:22;36.42;;;17.67;;
38693;SDS011;24447;43.460;25.744;2023-02-04T08:40:48;35.53;;;16.77;;
38693;SDS011;24447;43.460;25.744;2023-02-04T08:43:14;23.55;;;10.77;;
38693;SDS011;24447;43.460;25.744;2023-02-04T08:45:40;25.75;;;11.82;;
38693;SDS011;24447;43.460;25.744;2023-02-04T08:48:06;24.13;;;11.68;;
38693;SDS011;24447;43.460;25.744;2023-02-04T08:50:33;25.00;;;10.30;;
38693;SDS011;24447;43.460;25.744;2023-02-04T08:52:59;21.02;;;10.32;;
38693;SDS011;24447;43.460;25.744;2023-02-04T08:55:25;25.85;;;12.98;;
38693;SDS011;24447;43.460;25.744;2023-02-04T08:57:51;52.38;;;24.05;;
38693;SDS011;24447;43.460;25.744;2023-02-04T09:00:17;43.88;;;16.98;;
38693;SDS011;24447;43.460;25.744;2023-02-04T09:02:43;35.53;;;15.32;;
38693;SDS011;24447;43.460;25.744;2023-02-04T09:05:09;33.58;;;13.80;;
38693;SDS011;24447;43.460;25.744;2023-02-04T09:07:35;53.72;;;25.23;;
38693;SDS011;24447;43.460;25.744;2023-02-04T09:10:01;67.70;;;26.83;;
38693;SDS011;24447;43.460;25.744;2023-02-04T09:12:27;91.10;;;39.70;;
38693;SDS011;24447;43.460;25.744;2023-02-04T09:14:53;76.28;;;30.48;;
38693;SDS011;24447;43.460;25.744;2023-02-04T09:17:18;68.60;;;32.90;;
38693;SDS011;24447;43.460;25.744;2023-02-04T09:19:44;76.07;;;37.63;;
38693;SDS011;24447;43.460;25.744;2023-02-04T09:22:10;51.63;;;19.95;;
38693;SDS011;24447;43.460;25.744;2023-02-04T09:24:37;53.88;;;26.20;;
38693;SDS011;24447;43.460;25.744;2023-02-04T09:27:03;54.03;;;27.20;;
38693;SDS011;24447;43.460;25.744;2023-02-04T09:29:29;54.13;;;23.05;;
38693;SDS011;24447;43.460;25.744;2023-02-04T09:31:55;43.05;;;18.35;;
38693;SDS011;24447;43.460;25.744;2023-02-04T09:34:22;40.55;;;20.33;;
38693;SDS011;24447;43.460;25.744;2023-02-04T09:36:48;43.50;;;20.70;;
38693;SDS011;24447;43.460;25.744;2023-02-04T09:39:14;34.70;;;15.98;;
38693;SDS011;24447;43.460;25.744;2023-02-04T09:41:40;38.20;;;15.45;;
38693;SDS011;24447;43.460;25.744;2023-02-04T09:44:09;27.92;;;12.45;;
38693;SDS011;24447;43.460;25.744;2023-02-04T09:46:38;30.27;;;11.93;;
38693;SDS011;24447;43.460;25.744;2023-02-04T09:49:04;26.40;;;11.52;;
38693;SDS011;24447;43.460;25.744;2023-02-04T09:51:32;25.50;;;12.27;;
38693;SDS011;24447;43.460;25.744;2023-02-04T09:54:11;27.00;;;11.45;;
38693;SDS011;24447;43.460;25.744;2023-02-04T09:56:41;27.38;;;11.70;;
38693;SDS011;24447;43.460;25.744;2023-02-04T09:59:11;24.40;;;9.65;;
38693;SDS011;24447;43.460;25.744;2023-02-04T10:01:38;47.45;;;16.02;;
38693;SDS011;24447;43.460;25.744;2023-02-04T10:04:04;38.00;;;11.90;;
38693;SDS011;24447;43.460;25.744;2023-02-04T10:06:30;43.00;;;15.45;;
38693;SDS011;24447;43.460;25.744;2023-02-04T10:08:56;40.53;;;15.85;;
38693;SDS011;24447;43.460;25.744;2023-02-04T10:11:23;30.23;;;12.05;;
38693;SDS011;24447;43.460;25.744;2023-02-04T10:13:50;25.15;;;9.20;;
38693;SDS011;24447;43.460;25.744;2023-02-04T10:16:28;30.42;;;10.07;;
38693;SDS011;24447;43.460;25.744;2023-02-04T10:18:56;19.30;;;9.27;;
38693;SDS011;24447;43.460;25.744;2023-02-04T10:21:27;133.70;;;44.97;;
38693;SDS011;24447;43.460;25.744;2023-02-04T10:23:59;234.30;;;100.43;;
38693;SDS011;24447;43.460;25.744;2023-02-04T10:26:27;156.35;;;70.97;;
38693;SDS011;24447;43.460;25.744;2023-02-04T10:29:01;33.20;;;15.02;;
38693;SDS011;24447;43.460;25.744;2023-02-04T10:31:53;33.92;;;14.50;;
38693;SDS011;24447;43.460;25.744;2023-02-04T10:34:23;31.42;;;13.65;;
38693;SDS011;24447;43.460;25.744;2023-02-04T10:37:10;23.92;;;10.88;;
38693;SDS011;24447;43.460;25.744;2023-02-04T10:39:43;24.33;;;9.10;;
38693;SDS011;24447;43.460;25.744;2023-02-04T10:42:18;22.35;;;7.88;;
38693;SDS011;24447;43.460;25.744;2023-02-04T10:44:46;24.38;;;9.23;;
38693;SDS011;24447;43.460;25.744;2023-02-04T10:47:16;30.05;;;11.52;;
38693;SDS011;24447;43.460;25.744;2023-02-04T10:52:19;19.15;;;9.10;;
38693;SDS011;24447;43.460;25.744;2023-02-04T10:54:46;20.65;;;7.93;;
38693;SDS011;24447;43.460;25.744;2023-02-04T10:57:23;31.63;;;12.77;;
38693;SDS011;24447;43.460;25.744;2023-02-04T10:59:56;24.92;;;11.15;;
38693;SDS011;24447;43.460;25.744;2023-02-04T11:05:02;63.25;;;23.42;;
38693;SDS011;24447;43.460;25.744;2023-02-04T11:07:28;30.92;;;11.65;;
38693;SDS011;24447;43.460;25.744;2023-02-04T11:09:55;25.60;;;10.23;;
38693;SDS011;24447;43.460;25.744;2023-02-04T11:12:43;27.20;;;12.43;;
38693;SDS011;24447;43.460;25.744;2023-02-04T11:20:37;21.20;;;10.15;;
38693;SDS011;24447;43.460;25.744;2023-02-04T11:26:14;16.40;;;6.15;;
38693;SDS011;24447;43.460;25.744;2023-02-04T11:31:13;20.02;;;9.07;;
38693;SDS011;24447;43.460;25.744;2023-02-04T11:33:44;21.38;;;9.25;;
38693;SDS011;24447;43.460;25.744;2023-02-04T11:36:11;16.08;;;6.18;;
38693;SDS011;24447;43.460;25.744;2023-02-04T11:38:39;15.75;;;6.65;;
38693;SDS011;24447;43.460;25.744;2023-02-04T11:41:13;10.57;;;5.75;;
38693;SDS011;24447;43.460;25.744;2023-02-04T11:43:49;12.85;;;5.43;;
38693;SDS011;24447;43.460;25.744;2023-02-04T11:46:16;21.77;;;8.52;;
38693;SDS011;24447;43.460;25.744;2023-02-04T11:48:43;22.45;;;6.72;;
38693;SDS011;24447;43.460;25.744;2023-02-04T11:51:13;34.13;;;11.18;;
38693;SDS011;24447;43.460;25.744;2023-02-04T11:53:41;36.60;;;12.52;;
38693;SDS011;24447;43.460;25.744;2023-02-04T11:56:15;24.15;;;8.20;;
38693;SDS011;24447;43.460;25.744;2023-02-04T11:58:45;32.55;;;9.65;;
38693;SDS011;24447;43.460;25.744;2023-02-04T12:01:18;25.50;;;8.30;;
38693;SDS011;24447;43.460;25.744;2023-02-04T12:03:49;26.38;;;8.40;;
38693;SDS011;24447;43.460;25.744;2023-02-04T12:06:29;23.83;;;10.20;;
38693;SDS011;24447;43.460;25.744;2023-02-04T12:09:07;20.65;;;7.68;;
38693;SDS011;24447;43.460;25.744;2023-02-04T12:11:50;20.80;;;8.43;;
38693;SDS011;24447;43.460;25.744;2023-02-04T12:14:17;20.20;;;8.00;;
38693;SDS011;24447;43.460;25.744;2023-02-04T12:16:44;21.83;;;8.02;;
38693;SDS011;24447;43.460;25.744;2023-02-04T12:19:10;20.05;;;7.75;;
38693;SDS011;24447;43.460;25.744;2023-02-04T12:21:37;16.13;;;6.03;;
38693;SDS011;24447;43.460;25.744;2023-02-04T12:24:03;16.83;;;6.72;;
38693;SDS011;24447;43.460;25.744;2023-02-04T12:26:29;20.98;;;7.88;;
38693;SDS011;24447;43.460;25.744;2023-02-04T12:28:55;17.50;;;5.85;;
38693;SDS011;24447;43.460;25.744;2023-02-04T12:31:21;17.45;;;6.35;;
38693;SDS011;24447;43.460;25.744;2023-02-04T12:33:47;19.95;;;9.20;;
38693;SDS011;24447;43.460;25.744;2023-02-04T12:36:13;18.65;;;7.88;;
38693;SDS011;24447;43.460;25.744;2023-02-04T12:38:39;28.45;;;12.55;;
38693;SDS011;24447;43.460;25.744;2023-02-04T12:41:05;27.30;;;11.30;;
38693;SDS011;24447;43.460;25.744;2023-02-04T12:43:31;26.38;;;8.57;;
38693;SDS011;24447;43.460;25.744;2023-02-04T12:45:57;27.77;;;11.20;;
38693;SDS011;24447;43.460;25.744;2023-02-04T12:48:23;23.60;;;9.23;;
38693;SDS011;24447;43.460;25.744;2023-02-04T12:50:49;21.67;;;7.82;;
38693;SDS011;24447;43.460;25.744;2023-02-04T12:53:15;112.60;;;44.58;;
38693;SDS011;24447;43.460;25.744;2023-02-04T12:55:41;25.63;;;10.35;;
38693;SDS011;24447;43.460;25.744;2023-02-04T12:58:07;16.35;;;6.47;;
38693;SDS011;24447;43.460;25.744;2023-02-04T13:00:33;19.45;;;7.85;;
38693;SDS011;24447;43.460;25.744;2023-02-04T13:02:59;15.65;;;6.20;;
38693;SDS011;24447;43.460;25.744;2023-02-04T13:05:25;20.20;;;9.75;;
38693;SDS011;24447;43.460;25.744;2023-02-04T13:07:51;24.90;;;8.18;;
38693;SDS011;24447;43.460;25.744;2023-02-04T13:10:17;34.03;;;12.77;;
38693;SDS011;24447;43.460;25.744;2023-02-04T13:12:44;27.50;;;11.02;;
38693;SDS011;24447;43.460;25.744;2023-02-04T13:15:10;14.90;;;6.50;;
38693;SDS011;24447;43.460;25.744;2023-02-04T13:17:36;14.85;;;6.43;;
38693;SDS011;24447;43.460;25.744;2023-02-04T13:20:03;17.85;;;5.82;;
38693;SDS011;24447;43.460;25.744;2023-02-04T13:22:29;21.02;;;6.30;;
38693;SDS011;24447;43.460;25.744;2023-02-04T13:24:55;13.73;;;5.53;;
38693;SDS011;24447;43.460;25.744;2023-02-04T13:27:21;19.42;;;7.18;;
38693;SDS011;24447;43.460;25.744;2023-02-04T13:29:47;18.85;;;6.32;;
38693;SDS011;24447;43.460;25.744;2023-02-04T13:32:13;14.55;;;4.88;;
38693;SDS011;24447;43.460;25.744;2023-02-04T13:34:39;14.85;;;5.88;;
38693;SDS011;24447;43.460;25.744;2023-02-04T13:37:05;13.10;;;5.03;;
38693;SDS011;24447;43.460;25.744;2023-02-04T13:39:31;9.30;;;4.32;;
38693;SDS011;24447;43.460;25.744;2023-02-04T13:41:57;10.13;;;5.00;;
38693;SDS011;24447;43.460;25.744;2023-02-04T13:44:23;12.40;;;5.22;;
38693;SDS011;24447;43.460;25.744;2023-02-04T13:46:49;9.57;;;4.35;;
38693;SDS011;24447;43.460;25.744;2023-02-04T13:49:15;8.25;;;4.50;;
38693;SDS011;24447;43.460;25.744;2023-02-04T13:51:41;13.77;;;4.25;;
38693;SDS011;24447;43.460;25.744;2023-02-04T13:54:07;19.27;;;5.78;;
38693;SDS011;24447;43.460;25.744;2023-02-04T13:56:33;8.25;;;4.22;;
38693;SDS011;24447;43.460;25.744;2023-02-04T13:59:00;8.45;;;4.45;;
38693;SDS011;24447;43.460;25.744;2023-02-04T14:01:26;12.63;;;5.18;;
38693;SDS011;24447;43.460;25.744;2023-02-04T14:03:52;10.40;;;3.70;;
38693;SDS011;24447;43.460;25.744;2023-02-04T14:06:18;7.55;;;3.85;;
38693;SDS011;24447;43.460;25.744;2023-02-04T14:08:46;8.77;;;3.85;;
38693;SDS011;24447;43.460;25.744;2023-02-04T14:11:12;8.98;;;4.13;;
38693;SDS011;24447;43.460;25.744;2023-02-04T14:13:38;11.23;;;5.28;;
38693;SDS011;24447;43.460;25.744;2023-02-04T14:16:04;13.90;;;5.30;;
38693;SDS011;24447;43.460;25.744;2023-02-04T14:18:33;10.18;;;4.50;;
38693;SDS011;24447;43.460;25.744;2023-02-04T14:20:59;8.65;;;4.40;;
38693;SDS011;24447;43.460;25.744;2023-02-04T14:23:25;16.60;;;6.53;;
38693;SDS011;24447;43.460;25.744;2023-02-04T14:25:51;23.63;;;9.30;;
38693;SDS011;24447;43.460;25.744;2023-02-04T14:28:17;27.00;;;9.45;;
38693;SDS011;24447;43.460;25.744;2023-02-04T14:30:43;29.48;;;9.23;;